sensor_id;sensor_type;location;lat;lon;timestamp;temperature;humidity
831;DHT22;397;50.564;7.272;2023-11-19T06:43:23;9.40;99.90
831;DHT22;397;50.564;7.272;2023-11-19T06:45:50;9.30;99.90
831;DHT22;397;50.564;7.272;2023-11-19T13:57:30;13.50;99.90
831;DHT22;397;50.564;7.272;2023-11-19T13:59:58;13.60;99.90
831;DHT22;397;50.564;7.272;2023-11-19T14:02:25;13.40;99.90
831;DHT22;397;50.564;7.272;2023-11-19T14:04:53;13.40;99.90
831;DHT22;397;50.564;7.272;2023-11-19T14:07:21;13.70;99.90
831;DHT22;397;50.564;7.272;2023-11-19T14:09:48;13.90;99.90
831;DHT22;397;50.564;7.272;2023-11-19T14:12:16;14.00;99.90
831;DHT22;397;50.564;7.272;2023-11-19T14:14:44;13.90;99.90
831;DHT22;397;50.564;7.272;2023-11-19T14:17:11;13.80;99.90
831;DHT22;397;50.564;7.272;2023-11-19T14:19:39;13.70;99.90
831;DHT22;397;50.564;7.272;2023-11-19T14:22:07;13.70;99.90
831;DHT22;397;50.564;7.272;2023-11-19T14:24:35;13.70;99.90
831;DHT22;397;50.564;7.272;2023-11-19T14:27:02;13.60;99.90
831;DHT22;397;50.564;7.272;2023-11-19T14:29:30;13.50;99.90
831;DHT22;397;50.564;7.272;2023-11-19T14:31:58;13.50;99.90
831;DHT22;397;50.564;7.272;2023-11-19T14:34:25;13.40;99.90
831;DHT22;397;50.564;7.272;2023-11-19T14:36:53;13.30;99.90
831;DHT22;397;50.564;7.272;2023-11-19T14:39:21;13.30;99.90
831;DHT22;397;50.564;7.272;2023-11-19T14:41:48;13.40;99.90
831;DHT22;397;50.564;7.272;2023-11-19T14:44:17;13.30;99.90
831;DHT22;397;50.564;7.272;2023-11-19T14:46:46;13.30;99.90
831;DHT22;397;50.564;7.272;2023-11-19T14:49:14;13.20;99.90
831;DHT22;397;50.564;7.272;2023-11-19T14:51:41;13.20;99.90
831;DHT22;397;50.564;7.272;2023-11-19T14:54:09;13.20;99.90
831;DHT22;397;50.564;7.272;2023-11-19T14:56:36;13.10;99.90
831;DHT22;397;50.564;7.272;2023-11-19T14:59:05;13.20;99.90
831;DHT22;397;50.564;7.272;2023-11-19T15:01:32;13.30;99.90
831;DHT22;397;50.564;7.272;2023-11-19T15:04:00;13.20;99.90
831;DHT22;397;50.564;7.272;2023-11-19T15:06:27;13.20;99.90
831;DHT22;397;50.564;7.272;2023-11-19T15:08:57;13.10;99.90
831;DHT22;397;50.564;7.272;2023-11-19T15:11:24;13.10;99.90
831;DHT22;397;50.564;7.272;2023-11-19T15:13:52;13.10;99.90
831;DHT22;397;50.564;7.272;2023-11-19T15:16:20;13.00;99.90
831;DHT22;397;50.564;7.272;2023-11-19T15:18:49;13.00;99.90
831;DHT22;397;50.564;7.272;2023-11-19T15:21:16;13.10;99.90
831;DHT22;397;50.564;7.272;2023-11-19T15:23:44;13.00;99.90
831;DHT22;397;50.564;7.272;2023-11-19T15:26:11;13.00;99.90
831;DHT22;397;50.564;7.272;2023-11-19T15:28:39;13.00;99.90
831;DHT22;397;50.564;7.272;2023-11-19T15:31:06;13.00;99.90
831;DHT22;397;50.564;7.272;2023-11-19T15:33:34;12.90;99.90
831;DHT22;397;50.564;7.272;2023-11-19T15:36:02;12.90;99.90
831;DHT22;397;50.564;7.272;2023-11-19T15:38:31;13.00;99.90
831;DHT22;397;50.564;7.272;2023-11-19T15:40:59;13.00;99.90
831;DHT22;397;50.564;7.272;2023-11-19T15:43:26;13.00;99.90
831;DHT22;397;50.564;7.272;2023-11-19T15:45:54;12.80;99.90
831;DHT22;397;50.564;7.272;2023-11-19T15:48:21;12.80;99.90
831;DHT22;397;50.564;7.272;2023-11-19T15:50:49;12.80;99.90
831;DHT22;397;50.564;7.272;2023-11-19T15:53:16;12.80;99.90
831;DHT22;397;50.564;7.272;2023-11-19T15:55:45;12.80;99.90
831;DHT22;397;50.564;7.272;2023-11-19T15:58:12;12.80;99.90
831;DHT22;397;50.564;7.272;2023-11-19T16:00:40;12.80;99.90
831;DHT22;397;50.564;7.272;2023-11-19T16:03:09;12.60;99.90
831;DHT22;397;50.564;7.272;2023-11-19T16:05:37;12.60;99.90
831;DHT22;397;50.564;7.272;2023-11-19T16:08:04;12.60;99.90
831;DHT22;397;50.564;7.272;2023-11-19T16:10:32;12.70;99.90
831;DHT22;397;50.564;7.272;2023-11-19T16:12:59;12.80;99.90
831;DHT22;397;50.564;7.272;2023-11-19T16:15:27;12.70;99.90
831;DHT22;397;50.564;7.272;2023-11-19T16:17:55;12.60;99.90
831;DHT22;397;50.564;7.272;2023-11-19T16:20:24;12.60;99.90
831;DHT22;397;50.564;7.272;2023-11-19T16:22:51;12.60;99.90
831;DHT22;397;50.564;7.272;2023-11-19T16:25:19;12.70;99.90
831;DHT22;397;50.564;7.272;2023-11-19T16:27:46;12.70;99.90
831;DHT22;397;50.564;7.272;2023-11-19T16:30:14;12.80;99.90
831;DHT22;397;50.564;7.272;2023-11-19T16:32:50;12.70;99.90
831;DHT22;397;50.564;7.272;2023-11-19T16:35:17;12.70;99.90
831;DHT22;397;50.564;7.272;2023-11-19T16:37:45;12.60;99.90
831;DHT22;397;50.564;7.272;2023-11-19T16:40:13;12.70;99.90
831;DHT22;397;50.564;7.272;2023-11-19T16:42:40;12.50;99.90
831;DHT22;397;50.564;7.272;2023-11-19T16:45:08;12.50;99.90
831;DHT22;397;50.564;7.272;2023-11-19T16:47:36;12.40;99.90
831;DHT22;397;50.564;7.272;2023-11-19T16:50:03;12.40;99.90
831;DHT22;397;50.564;7.272;2023-11-19T16:52:31;12.40;99.90
831;DHT22;397;50.564;7.272;2023-11-19T16:54:59;12.40;99.90
831;DHT22;397;50.564;7.272;2023-11-19T16:57:28;12.50;99.90
831;DHT22;397;50.564;7.272;2023-11-19T16:59:57;12.60;99.90
831;DHT22;397;50.564;7.272;2023-11-19T17:02:25;12.50;99.90
831;DHT22;397;50.564;7.272;2023-11-19T17:04:52;12.40;99.90
831;DHT22;397;50.564;7.272;2023-11-19T17:07:20;12.40;99.90
831;DHT22;397;50.564;7.272;2023-11-19T17:09:48;12.40;99.90
831;DHT22;397;50.564;7.272;2023-11-19T17:12:15;12.40;99.90
831;DHT22;397;50.564;7.272;2023-11-19T17:14:43;12.30;99.90
831;DHT22;397;50.564;7.272;2023-11-19T17:17:10;12.30;99.90
831;DHT22;397;50.564;7.272;2023-11-19T17:19:38;12.30;99.90
831;DHT22;397;50.564;7.272;2023-11-19T17:22:07;12.40;99.90
831;DHT22;397;50.564;7.272;2023-11-19T17:24:34;12.40;99.90
831;DHT22;397;50.564;7.272;2023-11-19T17:27:03;12.40;99.90
831;DHT22;397;50.564;7.272;2023-11-19T17:29:31;12.30;99.90
831;DHT22;397;50.564;7.272;2023-11-19T17:31:58;12.20;99.90
831;DHT22;397;50.564;7.272;2023-11-19T17:34:25;12.10;99.90
831;DHT22;397;50.564;7.272;2023-11-19T17:36:53;12.20;99.90
831;DHT22;397;50.564;7.272;2023-11-19T17:39:20;12.20;99.90
831;DHT22;397;50.564;7.272;2023-11-19T17:41:48;12.10;99.90
831;DHT22;397;50.564;7.272;2023-11-19T17:44:15;12.10;99.90
831;DHT22;397;50.564;7.272;2023-11-19T17:46:43;12.10;99.90
831;DHT22;397;50.564;7.272;2023-11-19T17:49:10;12.20;99.90
831;DHT22;397;50.564;7.272;2023-11-19T17:51:38;12.10;99.90
831;DHT22;397;50.564;7.272;2023-11-19T17:54:05;12.00;99.90
831;DHT22;397;50.564;7.272;2023-11-19T17:56:33;12.10;99.90
831;DHT22;397;50.564;7.272;2023-11-19T17:59:01;12.20;99.90
831;DHT22;397;50.564;7.272;2023-11-19T18:01:29;12.20;99.90
831;DHT22;397;50.564;7.272;2023-11-19T18:03:57;12.20;99.90
831;DHT22;397;50.564;7.272;2023-11-19T18:06:25;12.10;99.90
831;DHT22;397;50.564;7.272;2023-11-19T18:08:53;12.10;99.90
831;DHT22;397;50.564;7.272;2023-11-19T18:11:21;12.10;99.90
831;DHT22;397;50.564;7.272;2023-11-19T18:13:48;11.90;99.90
831;DHT22;397;50.564;7.272;2023-11-19T18:16:20;12.20;99.90
831;DHT22;397;50.564;7.272;2023-11-19T18:18:49;12.20;99.90
831;DHT22;397;50.564;7.272;2023-11-19T18:21:17;12.30;99.90
831;DHT22;397;50.564;7.272;2023-11-19T18:23:45;12.30;99.90
831;DHT22;397;50.564;7.272;2023-11-19T18:26:12;12.40;99.90
831;DHT22;397;50.564;7.272;2023-11-19T18:28:40;12.30;99.90
831;DHT22;397;50.564;7.272;2023-11-19T18:31:07;12.30;99.90
831;DHT22;397;50.564;7.272;2023-11-19T18:33:35;12.40;99.90
831;DHT22;397;50.564;7.272;2023-11-19T18:36:03;12.40;99.90
831;DHT22;397;50.564;7.272;2023-11-19T18:38:33;12.40;99.90
831;DHT22;397;50.564;7.272;2023-11-19T18:41:02;12.40;99.90
831;DHT22;397;50.564;7.272;2023-11-19T18:43:29;12.50;99.90
831;DHT22;397;50.564;7.272;2023-11-19T18:45:57;12.50;99.90
831;DHT22;397;50.564;7.272;2023-11-19T18:48:24;12.50;99.90
831;DHT22;397;50.564;7.272;2023-11-19T18:50:52;12.50;99.90
831;DHT22;397;50.564;7.272;2023-11-19T18:53:19;12.50;99.90
831;DHT22;397;50.564;7.272;2023-11-19T18:55:47;12.50;99.90
831;DHT22;397;50.564;7.272;2023-11-19T18:58:14;12.50;99.90
831;DHT22;397;50.564;7.272;2023-11-19T19:00:42;12.50;99.90
831;DHT22;397;50.564;7.272;2023-11-19T19:03:09;12.50;99.90
831;DHT22;397;50.564;7.272;2023-11-19T19:05:39;12.40;99.90
831;DHT22;397;50.564;7.272;2023-11-19T19:08:06;12.40;99.90
831;DHT22;397;50.564;7.272;2023-11-19T19:10:34;12.30;99.90
831;DHT22;397;50.564;7.272;2023-11-19T19:13:03;12.30;99.90
831;DHT22;397;50.564;7.272;2023-11-19T19:15:30;12.40;99.90
831;DHT22;397;50.564;7.272;2023-11-19T19:17:58;12.40;99.90
831;DHT22;397;50.564;7.272;2023-11-19T19:20:26;12.40;99.90
831;DHT22;397;50.564;7.272;2023-11-19T19:22:53;12.30;99.90
831;DHT22;397;50.564;7.272;2023-11-19T19:25:21;12.20;99.90
831;DHT22;397;50.564;7.272;2023-11-19T19:27:50;12.10;99.90
831;DHT22;397;50.564;7.272;2023-11-19T19:30:18;12.10;99.90
831;DHT22;397;50.564;7.272;2023-11-19T19:32:45;12.10;99.90
831;DHT22;397;50.564;7.272;2023-11-19T19:35:13;12.20;99.90
831;DHT22;397;50.564;7.272;2023-11-19T19:37:41;12.20;99.90
831;DHT22;397;50.564;7.272;2023-11-19T19:40:09;12.20;99.90
831;DHT22;397;50.564;7.272;2023-11-19T19:42:41;12.10;99.90
831;DHT22;397;50.564;7.272;2023-11-19T19:45:09;12.10;99.90
831;DHT22;397;50.564;7.272;2023-11-19T19:47:37;12.20;99.90
831;DHT22;397;50.564;7.272;2023-11-19T19:50:05;12.20;99.90
831;DHT22;397;50.564;7.272;2023-11-19T19:52:37;12.20;99.90
831;DHT22;397;50.564;7.272;2023-11-19T19:55:06;12.20;99.90
831;DHT22;397;50.564;7.272;2023-11-19T19:57:34;12.30;99.90
831;DHT22;397;50.564;7.272;2023-11-19T20:00:02;12.30;99.90
831;DHT22;397;50.564;7.272;2023-11-19T20:02:38;12.20;99.90
831;DHT22;397;50.564;7.272;2023-11-19T20:05:06;12.30;99.90
831;DHT22;397;50.564;7.272;2023-11-19T20:07:42;12.30;99.90
831;DHT22;397;50.564;7.272;2023-11-19T20:10:11;12.30;99.90
831;DHT22;397;50.564;7.272;2023-11-19T20:12:38;12.30;99.90
831;DHT22;397;50.564;7.272;2023-11-19T20:15:08;12.40;99.90
831;DHT22;397;50.564;7.272;2023-11-19T20:17:37;12.40;99.90
831;DHT22;397;50.564;7.272;2023-11-19T20:20:05;12.30;99.90
831;DHT22;397;50.564;7.272;2023-11-19T20:22:35;12.30;99.90
831;DHT22;397;50.564;7.272;2023-11-19T20:25:02;12.30;99.90
831;DHT22;397;50.564;7.272;2023-11-19T20:27:30;12.50;99.90
831;DHT22;397;50.564;7.272;2023-11-19T20:29:57;12.40;99.90
831;DHT22;397;50.564;7.272;2023-11-19T20:32:25;12.40;99.90
831;DHT22;397;50.564;7.272;2023-11-19T20:34:52;12.60;99.90
831;DHT22;397;50.564;7.272;2023-11-19T20:37:20;12.50;99.90
831;DHT22;397;50.564;7.272;2023-11-19T20:39:47;12.60;99.90
831;DHT22;397;50.564;7.272;2023-11-19T20:42:15;12.50;99.90
831;DHT22;397;50.564;7.272;2023-11-19T20:44:42;12.50;99.90
831;DHT22;397;50.564;7.272;2023-11-19T20:47:10;12.50;99.90
831;DHT22;397;50.564;7.272;2023-11-19T20:49:37;12.40;99.90
831;DHT22;397;50.564;7.272;2023-11-19T20:52:05;12.50;99.90
831;DHT22;397;50.564;7.272;2023-11-19T20:54:32;12.50;99.90
831;DHT22;397;50.564;7.272;2023-11-19T20:57:00;12.40;99.90
831;DHT22;397;50.564;7.272;2023-11-19T20:59:27;12.40;99.90
831;DHT22;397;50.564;7.272;2023-11-19T21:01:55;12.40;99.90
831;DHT22;397;50.564;7.272;2023-11-19T21:04:23;12.30;99.90
831;DHT22;397;50.564;7.272;2023-11-19T21:06:50;12.30;99.90
831;DHT22;397;50.564;7.272;2023-11-19T21:09:18;12.30;99.90
831;DHT22;397;50.564;7.272;2023-11-19T21:11:45;12.30;99.90
831;DHT22;397;50.564;7.272;2023-11-19T21:14:13;12.30;99.90
831;DHT22;397;50.564;7.272;2023-11-19T21:16:40;12.30;99.90
831;DHT22;397;50.564;7.272;2023-11-19T21:19:08;12.30;99.90
831;DHT22;397;50.564;7.272;2023-11-19T21:21:35;12.40;99.90
831;DHT22;397;50.564;7.272;2023-11-19T21:24:04;12.40;99.90
831;DHT22;397;50.564;7.272;2023-11-19T21:26:32;12.40;99.90
831;DHT22;397;50.564;7.272;2023-11-19T21:28:59;12.40;99.90
831;DHT22;397;50.564;7.272;2023-11-19T21:31:27;12.30;99.90
831;DHT22;397;50.564;7.272;2023-11-19T21:33:55;12.30;99.90
831;DHT22;397;50.564;7.272;2023-11-19T21:36:23;12.20;99.90
831;DHT22;397;50.564;7.272;2023-11-19T21:38:51;12.20;99.90
831;DHT22;397;50.564;7.272;2023-11-19T21:41:18;12.20;99.90
831;DHT22;397;50.564;7.272;2023-11-19T21:43:46;12.20;99.90
831;DHT22;397;50.564;7.272;2023-11-19T21:46:13;12.20;99.90
831;DHT22;397;50.564;7.272;2023-11-19T21:48:41;12.20;99.90
831;DHT22;397;50.564;7.272;2023-11-19T21:51:09;12.20;99.90
831;DHT22;397;50.564;7.272;2023-11-19T21:53:36;12.20;99.90
831;DHT22;397;50.564;7.272;2023-11-19T21:56:06;12.20;99.90
831;DHT22;397;50.564;7.272;2023-11-19T21:58:33;12.20;99.90
831;DHT22;397;50.564;7.272;2023-11-19T22:01:01;12.20;99.90
831;DHT22;397;50.564;7.272;2023-11-19T22:03:29;12.20;99.90
831;DHT22;397;50.564;7.272;2023-11-19T22:05:57;12.10;99.90
831;DHT22;397;50.564;7.272;2023-11-19T22:08:24;12.10;99.90
831;DHT22;397;50.564;7.272;2023-11-19T22:10:53;12.00;99.90
831;DHT22;397;50.564;7.272;2023-11-19T22:13:21;12.10;99.90
831;DHT22;397;50.564;7.272;2023-11-19T22:15:49;12.10;99.90
831;DHT22;397;50.564;7.272;2023-11-19T22:18:16;12.10;99.90
831;DHT22;397;50.564;7.272;2023-11-19T22:20:44;12.00;99.90
831;DHT22;397;50.564;7.272;2023-11-19T22:23:11;12.10;99.90
831;DHT22;397;50.564;7.272;2023-11-19T22:25:39;12.10;99.90
831;DHT22;397;50.564;7.272;2023-11-19T22:28:06;12.00;99.90
831;DHT22;397;50.564;7.272;2023-11-19T22:30:34;12.00;99.90
831;DHT22;397;50.564;7.272;2023-11-19T22:33:01;12.00;99.90
831;DHT22;397;50.564;7.272;2023-11-19T22:35:29;12.00;99.90
831;DHT22;397;50.564;7.272;2023-11-19T22:37:57;12.00;99.90
831;DHT22;397;50.564;7.272;2023-11-19T22:40:25;12.00;99.90
831;DHT22;397;50.564;7.272;2023-11-19T22:42:52;12.00;99.90
831;DHT22;397;50.564;7.272;2023-11-19T22:45:20;12.10;99.90
831;DHT22;397;50.564;7.272;2023-11-19T22:47:48;12.10;99.90
831;DHT22;397;50.564;7.272;2023-11-19T22:50:16;12.10;99.90
831;DHT22;397;50.564;7.272;2023-11-19T22:52:44;12.00;99.90
831;DHT22;397;50.564;7.272;2023-11-19T22:55:11;12.00;99.90
831;DHT22;397;50.564;7.272;2023-11-19T22:57:39;12.00;99.90
831;DHT22;397;50.564;7.272;2023-11-19T23:00:07;11.90;99.90
831;DHT22;397;50.564;7.272;2023-11-19T23:02:40;11.90;99.90
831;DHT22;397;50.564;7.272;2023-11-19T23:05:07;12.00;99.90
831;DHT22;397;50.564;7.272;2023-11-19T23:07:35;12.00;99.90
831;DHT22;397;50.564;7.272;2023-11-19T23:10:02;11.90;99.90
831;DHT22;397;50.564;7.272;2023-11-19T23:12:32;11.90;99.90
831;DHT22;397;50.564;7.272;2023-11-19T23:15:00;11.90;99.90
831;DHT22;397;50.564;7.272;2023-11-19T23:17:30;12.00;99.90
831;DHT22;397;50.564;7.272;2023-11-19T23:19:57;12.00;99.90
831;DHT22;397;50.564;7.272;2023-11-19T23:22:25;12.00;99.90
831;DHT22;397;50.564;7.272;2023-11-19T23:24:54;11.90;99.90
831;DHT22;397;50.564;7.272;2023-11-19T23:27:21;11.90;99.90
831;DHT22;397;50.564;7.272;2023-11-19T23:29:49;11.90;99.90
831;DHT22;397;50.564;7.272;2023-11-19T23:32:17;11.80;99.90
831;DHT22;397;50.564;7.272;2023-11-19T23:34:45;11.80;99.90
831;DHT22;397;50.564;7.272;2023-11-19T23:37:12;11.80;99.90
831;DHT22;397;50.564;7.272;2023-11-19T23:39:40;11.80;99.90
831;DHT22;397;50.564;7.272;2023-11-19T23:42:07;11.80;99.90
831;DHT22;397;50.564;7.272;2023-11-19T23:44:35;11.80;99.90
831;DHT22;397;50.564;7.272;2023-11-19T23:47:02;11.70;99.90
831;DHT22;397;50.564;7.272;2023-11-19T23:49:30;11.80;99.90
831;DHT22;397;50.564;7.272;2023-11-19T23:51:57;11.80;99.90
831;DHT22;397;50.564;7.272;2023-11-19T23:54:26;11.80;99.90
831;DHT22;397;50.564;7.272;2023-11-19T23:56:54;11.80;99.90
831;DHT22;397;50.564;7.272;2023-11-19T23:59:21;11.80;99.90
